Terminal Aerodrome Forecast
Issued by NWS Newport/Morehead City, NC

Home | Current Version | Previous Version | Text Only | Print | Product List | Glossary On
Versions: 1 2 3 4 5 6 7 8 9 10 11 12 13 14 15
000
FTUS42 KMHX 021700
TAFEWN
TAF
KEWN 021724Z 0218/0318 20008KT P6SM SCT040
     FM022300 22003KT P6SM SCT250
     FM031200 25008KT P6SM SCT050=

USA.gov is the U.S. government's official web portal to all federal, state and local government web resources and services.